Time;durP1;ratioP1;P1;durP2;ratioP2;P2;SDS_P1;SDS_P2;PMS_P1;PMS_P2;Temp;Humidity;BMP_temperature;BMP_pressure;BME280_temperature;BME280_humidity;BME280_pressure;Samples;Min_cycle;Max_cycle;Signal;HPM_P1;HPM_P2
2021/07/14 00:00:39;;;;;;;68.45;35.70;;;17.00;99.90;;;;;;5034972;28;20099;-72
2021/07/14 00:03:05;;;;;;;71.55;36.45;;;16.90;99.90;;;;;;5034596;28;20462;-72
2021/07/14 00:05:32;;;;;;;77.43;38.50;;;16.90;99.90;;;;;;5034331;28;20029;-72
2021/07/14 00:07:58;;;;;;;71.05;36.42;;;16.90;99.90;;;;;;5034884;28;20033;-72
2021/07/14 00:10:32;;;;;;;79.88;38.08;;;16.90;99.90;;;;;;5035004;28;20494;-72
2021/07/14 00:13:08;;;;;;;84.32;37.10;;;17.00;99.90;;;;;;5034496;28;20037;-71
2021/07/14 00:23:35;;;;;;;85.28;41.03;;;16.80;99.90;;;;;;4994312;28;20040;-73
2021/07/14 00:26:00;;;;;;;82.32;38.45;;;17.00;99.90;;;;;;5028533;28;20030;-73
2021/07/14 00:28:26;;;;;;;97.57;42.38;;;16.80;99.90;;;;;;5026597;28;20031;-72
2021/07/14 00:30:56;;;;;;;81.28;41.63;;;16.80;99.90;;;;;;5034527;28;20338;-72
2021/07/14 00:33:21;;;;;;;94.60;43.88;;;16.80;99.90;;;;;;5034330;28;20029;-72
2021/07/14 00:35:47;;;;;;;94.13;44.45;;;16.80;99.90;;;;;;5033135;28;20083;-72
2021/07/14 00:38:13;;;;;;;94.95;45.22;;;16.80;99.90;;;;;;5034822;28;20108;-72
2021/07/14 00:40:39;;;;;;;99.03;44.72;;;16.80;99.90;;;;;;5034153;28;20021;-72
2021/07/14 00:43:05;;;;;;;93.85;44.85;;;16.80;99.90;;;;;;5034326;28;20197;-73
2021/07/14 00:45:30;;;;;;;99.75;45.88;;;16.80;99.90;;;;;;5034632;28;20057;-72
2021/07/14 00:47:58;;;;;;;95.22;44.90;;;16.80;99.90;;;;;;5033558;28;20061;-72
2021/07/14 00:50:24;;;;;;;88.78;42.85;;;16.90;99.90;;;;;;5034425;28;20111;-72
2021/07/14 00:52:49;;;;;;;75.10;39.42;;;16.90;99.90;;;;;;5033808;28;20128;-73
2021/07/14 00:55:15;;;;;;;83.32;41.05;;;16.90;99.90;;;;;;5033650;28;20029;-73
2021/07/14 00:57:41;;;;;;;85.57;41.72;;;16.90;99.90;;;;;;5034207;28;20029;-73
2021/07/14 01:00:08;;;;;;;83.72;41.42;;;16.90;99.90;;;;;;5034069;28;20503;-73
2021/07/14 01:02:34;;;;;;;80.88;39.33;;;16.90;99.90;;;;;;5034001;28;20021;-72
2021/07/14 01:05:18;;;;;;;85.57;40.03;;;16.90;99.90;;;;;;5034287;28;20049;-73
2021/07/14 01:08:03;;;;;;;79.65;38.53;;;17.00;99.90;;;;;;5034178;28;20499;-73
2021/07/14 01:10:42;;;;;;;78.13;36.90;;;17.00;99.90;;;;;;5032037;28;20022;-72
2021/07/14 01:13:24;;;;;;;71.40;36.92;;;17.00;99.90;;;;;;5033936;28;20045;-71
2021/07/14 01:16:02;;;;;;;84.10;37.45;;;17.00;99.90;;;;;;5019869;28;20026;-72
2021/07/14 01:18:37;;;;;;;80.68;41.35;;;17.00;99.90;;;;;;5033897;28;20088;-73
2021/07/14 01:21:14;;;;;;;89.68;41.58;;;17.00;99.90;;;;;;5020723;28;20026;-72
2021/07/14 01:23:40;;;;;;;77.72;41.90;;;17.00;99.90;;;;;;5033313;28;20184;-72
2021/07/14 01:26:33;;;;;;;86.82;41.75;;;17.00;99.90;;;;;;5033723;28;20083;-73
2021/07/14 01:29:06;;;;;;;87.82;42.97;;;17.00;99.90;;;;;;5024731;28;20091;-73
2021/07/14 01:31:33;;;;;;;89.65;42.40;;;17.00;99.90;;;;;;5031890;28;20420;-72
2021/07/14 01:34:00;;;;;;;90.72;43.60;;;16.90;99.90;;;;;;5028221;28;20044;-72
2021/07/14 01:36:28;;;;;;;87.93;42.08;;;16.90;99.90;;;;;;5033179;28;20025;-73
2021/07/14 01:38:55;;;;;;;88.70;42.70;;;16.90;99.90;;;;;;5032657;28;20424;-72
2021/07/14 01:41:24;;;;;;;97.47;42.65;;;16.90;99.90;;;;;;5032936;28;20462;-72
2021/07/14 01:43:53;;;;;;;89.45;42.38;;;17.00;99.90;;;;;;5033123;28;20029;-71
2021/07/14 01:46:20;;;;;;;100.32;43.47;;;17.00;99.90;;;;;;5033157;28;20492;-72
2021/07/14 01:48:47;;;;;;;84.13;40.88;;;17.00;99.90;;;;;;5032715;28;20022;-73
2021/07/14 01:51:14;;;;;;;93.57;41.85;;;17.00;99.90;;;;;;5032452;28;20037;-72
2021/07/14 01:53:43;;;;;;;94.90;42.50;;;17.00;99.90;;;;;;5033127;28;20040;-73
2021/07/14 01:56:10;;;;;;;96.10;42.58;;;17.00;99.90;;;;;;5032685;28;20024;-73
2021/07/14 01:58:42;;;;;;;94.30;42.38;;;17.00;99.90;;;;;;5032815;28;20038;-73
2021/07/14 02:01:09;;;;;;;99.88;45.20;;;16.90;99.90;;;;;;5032582;28;20053;-73
2021/07/14 02:06:03;;;;;;;103.07;44.65;;;17.00;99.90;;;;;;5032299;28;20072;-72
2021/07/14 02:08:30;;;;;;;104.63;42.75;;;17.00;99.90;;;;;;5032665;28;20032;-72
2021/07/14 02:10:58;;;;;;;100.50;43.97;;;16.90;99.90;;;;;;5032417;28;20053;-72
2021/07/14 02:13:27;;;;;;;115.50;47.20;;;17.00;99.90;;;;;;5031924;28;20547;-71
2021/07/14 02:15:58;;;;;;;108.43;47.13;;;17.00;99.90;;;;;;5032877;28;20029;-72
2021/07/14 02:18:28;;;;;;;112.22;45.60;;;17.00;99.90;;;;;;5033263;28;20120;-72
2021/07/14 02:20:56;;;;;;;105.35;46.15;;;17.00;99.90;;;;;;5032579;28;20029;-74
2021/07/14 02:23:22;;;;;;;105.35;46.92;;;17.00;99.90;;;;;;5032786;28;20029;-73
2021/07/14 02:25:47;;;;;;;103.75;44.22;;;17.00;99.90;;;;;;5032054;28;20075;-72
2021/07/14 02:28:13;;;;;;;108.95;44.58;;;17.00;99.90;;;;;;5032124;28;20021;-73
2021/07/14 02:30:39;;;;;;;108.00;46.63;;;17.00;99.90;;;;;;5032570;28;20071;-72
2021/07/14 02:33:08;;;;;;;110.28;44.95;;;16.90;99.90;;;;;;5031568;28;20052;-72
2021/07/14 02:35:37;;;;;;;97.32;43.75;;;17.00;99.90;;;;;;5032129;28;20014;-72
2021/07/14 02:38:22;;;;;;;89.28;40.65;;;17.00;99.90;;;;;;5031742;28;20328;-72
2021/07/14 02:41:17;;;;;;;87.57;36.38;;;17.00;99.90;;;;;;5031547;28;20022;-73
2021/07/14 02:43:50;;;;;;;73.18;31.27;;;17.00;99.90;;;;;;5032518;28;20025;-72
2021/07/14 02:46:23;;;;;;;57.28;28.17;;;17.00;99.90;;;;;;5032390;28;20049;-73
2021/07/14 02:48:53;;;;;;;50.65;25.25;;;17.00;99.90;;;;;;5031894;28;20029;-73
2021/07/14 02:51:21;;;;;;;61.15;26.58;;;17.00;99.90;;;;;;5032470;28;20026;-72
2021/07/14 02:53:49;;;;;;;53.05;24.27;;;17.00;99.90;;;;;;5032094;28;20447;-72
2021/07/14 02:56:19;;;;;;;57.22;25.48;;;17.00;99.90;;;;;;5032130;28;20018;-72
2021/07/14 02:58:55;;;;;;;57.13;25.25;;;17.00;99.90;;;;;;5035448;28;20026;-72
2021/07/14 03:01:21;;;;;;;50.70;27.27;;;17.00;99.90;;;;;;5038390;28;20075;-72
2021/07/14 03:03:49;;;;;;;46.70;26.23;;;17.00;99.90;;;;;;5039072;28;20119;-72
2021/07/14 03:06:15;;;;;;;58.47;26.63;;;17.00;99.90;;;;;;5038572;28;20025;-73
2021/07/14 03:08:44;;;;;;;50.78;21.70;;;16.90;99.90;;;;;;5038329;28;20033;-72
2021/07/14 03:11:11;;;;;;;40.42;20.90;;;16.90;99.90;;;;;;5038709;28;20028;-72
2021/07/14 03:13:38;;;;;;;44.28;22.65;;;16.90;99.90;;;;;;5038857;28;20030;-72
2021/07/14 03:16:04;;;;;;;41.20;22.73;;;16.90;99.90;;;;;;5037992;28;20056;-72
2021/07/14 03:18:31;;;;;;;37.00;21.50;;;16.90;99.90;;;;;;5039049;28;20065;-73
2021/07/14 03:20:59;;;;;;;37.50;22.45;;;16.80;99.90;;;;;;5038645;28;20515;-73
2021/07/14 03:23:25;;;;;;;34.13;20.67;;;16.80;99.90;;;;;;5038175;28;20044;-72
2021/07/14 03:25:52;;;;;;;41.63;23.90;;;16.80;99.90;;;;;;5038632;28;20036;-71
2021/07/14 03:28:19;;;;;;;37.90;21.83;;;16.90;99.90;;;;;;5038473;28;20068;-72
2021/07/14 03:30:46;;;;;;;36.15;21.25;;;16.90;99.90;;;;;;5038229;28;20107;-73
2021/07/14 03:33:13;;;;;;;31.23;20.20;;;16.90;99.90;;;;;;5038560;28;20091;-72
2021/07/14 03:35:39;;;;;;;31.02;19.75;;;16.90;99.90;;;;;;5039214;28;20021;-73
2021/07/14 03:38:09;;;;;;;27.05;19.30;;;16.90;99.90;;;;;;5037639;28;20041;-72
2021/07/14 03:40:35;;;;;;;33.97;19.33;;;16.90;99.90;;;;;;5025250;28;20056;-74
2021/07/14 03:43:03;;;;;;;27.67;19.63;;;16.90;99.90;;;;;;5038474;28;20488;-72
2021/07/14 03:45:30;;;;;;;31.65;18.13;;;16.90;99.90;;;;;;5037989;28;20025;-72
2021/07/14 03:47:56;;;;;;;28.73;19.50;;;16.90;99.90;;;;;;5037932;28;20388;-73
2021/07/14 03:50:23;;;;;;;29.60;19.08;;;16.90;99.90;;;;;;5038076;28;20022;-73
2021/07/14 03:52:49;;;;;;;26.73;17.40;;;16.90;99.90;;;;;;5036986;28;20066;-72
2021/07/14 03:55:15;;;;;;;32.22;19.20;;;16.90;99.90;;;;;;5038355;28;20029;-73
2021/07/14 03:57:43;;;;;;;29.23;18.05;;;16.90;99.90;;;;;;5037461;28;20477;-73
2021/07/14 04:00:09;;;;;;;33.65;20.33;;;16.90;99.90;;;;;;5037969;28;20473;-73
2021/07/14 04:02:41;;;;;;;31.33;19.38;;;16.90;99.90;;;;;;5037530;28;20086;-72
2021/07/14 04:05:07;;;;;;;27.33;19.02;;;16.90;99.90;;;;;;5037022;28;20041;-72
2021/07/14 04:07:34;;;;;;;29.85;19.33;;;16.90;99.90;;;;;;5038123;28;20095;-73
2021/07/14 04:10:03;;;;;;;27.30;19.48;;;16.90;99.90;;;;;;5035239;28;20020;-73
2021/07/14 04:12:29;;;;;;;37.05;20.70;;;16.90;99.90;;;;;;5034712;28;20489;-73
2021/07/14 04:14:54;;;;;;;35.85;22.95;;;16.90;99.90;;;;;;5035022;28;20018;-73
2021/07/14 04:17:20;;;;;;;41.30;23.90;;;16.90;99.90;;;;;;5035215;28;20408;-73
2021/07/14 04:19:45;;;;;;;40.30;23.55;;;16.90;99.90;;;;;;5034446;28;20063;-74
2021/07/14 04:22:12;;;;;;;36.13;23.73;;;17.00;99.90;;;;;;5034851;28;20504;-74
2021/07/14 04:24:39;;;;;;;35.42;22.83;;;16.90;99.90;;;;;;5034975;28;20052;-73
2021/07/14 04:27:06;;;;;;;40.65;22.27;;;17.00;99.90;;;;;;5034609;28;20021;-73
2021/07/14 04:29:32;;;;;;;32.35;21.55;;;16.90;99.90;;;;;;5035308;28;20026;-72
2021/07/14 04:31:58;;;;;;;35.40;22.45;;;16.90;99.90;;;;;;5034465;28;20468;-73
2021/07/14 04:34:24;;;;;;;33.13;21.35;;;16.90;99.90;;;;;;5034281;28;20037;-73
2021/07/14 04:36:49;;;;;;;33.35;22.67;;;16.90;99.90;;;;;;5034908;28;20023;-73
2021/07/14 04:39:15;;;;;;;32.67;22.98;;;17.00;99.90;;;;;;5034512;28;20117;-73
2021/07/14 04:41:41;;;;;;;34.72;21.98;;;17.00;99.90;;;;;;5033804;28;20048;-73
2021/07/14 04:44:10;;;;;;;38.67;23.42;;;17.00;99.90;;;;;;5033524;28;20032;-73
2021/07/14 04:46:37;;;;;;;34.13;24.33;;;17.00;99.90;;;;;;5034612;28;20636;-75
2021/07/14 04:49:03;;;;;;;42.08;26.27;;;17.10;99.90;;;;;;5033342;28;20108;-73
2021/07/14 04:51:28;;;;;;;43.55;25.52;;;17.10;99.90;;;;;;5034249;28;20100;-72
2021/07/14 04:53:55;;;;;;;46.72;29.33;;;17.10;99.90;;;;;;5033655;28;20079;-74
2021/07/14 04:56:20;;;;;;;42.30;30.05;;;17.10;99.90;;;;;;5034330;28;20232;-72
2021/07/14 04:58:47;;;;;;;41.85;27.40;;;17.10;99.90;;;;;;5033881;28;20455;-73
2021/07/14 05:01:13;;;;;;;40.17;27.90;;;17.10;99.90;;;;;;5025987;28;20022;-73
2021/07/14 05:03:40;;;;;;;52.83;29.33;;;17.10;99.90;;;;;;5015568;28;20077;-74
2021/07/14 05:06:06;;;;;;;52.55;31.08;;;17.20;99.90;;;;;;5018372;28;20470;-73
2021/07/14 05:08:31;;;;;;;44.70;29.17;;;17.20;99.90;;;;;;5017228;28;20082;-73
2021/07/14 05:10:57;;;;;;;52.20;32.53;;;17.20;99.90;;;;;;5013825;28;20374;-72
2021/07/14 05:13:22;;;;;;;55.75;34.60;;;17.20;99.90;;;;;;5016443;28;20059;-73
2021/07/14 05:15:48;;;;;;;69.15;38.60;;;18.40;99.90;;;;;;5013064;28;20022;-73
2021/07/14 05:18:14;;;;;;;68.88;38.20;;;17.20;99.90;;;;;;5015104;28;20037;-72
2021/07/14 05:20:40;;;;;;;61.38;34.45;;;17.20;99.90;;;;;;5013154;28;20037;-73
2021/07/14 05:23:09;;;;;;;48.33;31.92;;;17.20;99.90;;;;;;5014323;28;20029;-74
2021/07/14 05:25:35;;;;;;;46.72;31.42;;;17.60;99.90;;;;;;5019287;28;20037;-73
2021/07/14 05:28:01;;;;;;;63.20;36.97;;;17.20;99.90;;;;;;5014103;28;20030;-73
2021/07/14 05:30:27;;;;;;;71.82;42.88;;;17.20;99.90;;;;;;5016773;28;20080;-73
2021/07/14 05:32:53;;;;;;;76.18;46.15;;;17.20;99.90;;;;;;5017873;28;20045;-73
2021/07/14 05:35:18;;;;;;;82.07;45.17;;;17.20;99.90;;;;;;5016221;28;20072;-74
2021/07/14 05:37:44;;;;;;;83.07;47.17;;;17.30;99.90;;;;;;5013710;28;20021;-73
2021/07/14 05:40:11;;;;;;;80.70;46.25;;;17.20;99.90;;;;;;5017684;28;20030;-73
2021/07/14 05:42:36;;;;;;;77.45;43.45;;;17.20;99.90;;;;;;5032326;28;20471;-73
2021/07/14 05:45:03;;;;;;;75.13;43.33;;;17.30;99.90;;;;;;5031458;28;20204;-72
2021/07/14 05:47:28;;;;;;;73.80;42.08;;;17.30;99.90;;;;;;5032044;28;20021;-72
2021/07/14 05:49:54;;;;;;;70.45;38.90;;;17.30;99.90;;;;;;5032674;28;20022;-73
2021/07/14 05:52:20;;;;;;;68.05;37.13;;;17.30;99.90;;;;;;5032162;28;20025;-72
2021/07/14 05:54:45;;;;;;;63.38;37.13;;;17.30;99.90;;;;;;5031953;28;20024;-72
2021/07/14 05:57:11;;;;;;;56.75;33.90;;;17.40;99.90;;;;;;5029267;28;20056;-71
2021/07/14 05:59:36;;;;;;;61.08;35.85;;;17.30;99.90;;;;;;5032552;28;20067;-73
2021/07/14 06:02:02;;;;;;;66.88;37.42;;;17.40;99.90;;;;;;5031794;28;20049;-71
2021/07/14 06:04:29;;;;;;;60.20;34.38;;;17.30;99.90;;;;;;5031489;28;20171;-72
2021/07/14 06:06:56;;;;;;;63.38;34.53;;;17.20;99.90;;;;;;5031989;28;20013;-71
2021/07/14 06:09:22;;;;;;;61.30;34.53;;;17.30;99.90;;;;;;5031735;28;20033;-72
2021/07/14 06:11:48;;;;;;;52.10;29.13;;;17.20;99.90;;;;;;5031357;28;20014;-72
2021/07/14 06:14:14;;;;;;;52.50;30.80;;;17.20;99.90;;;;;;5031900;28;20030;-72
2021/07/14 06:16:39;;;;;;;56.38;28.67;;;17.20;99.90;;;;;;5031730;28;20068;-73
2021/07/14 06:19:05;;;;;;;42.88;25.52;;;18.30;99.90;;;;;;5031768;28;20108;-73
2021/07/14 06:21:31;;;;;;;45.13;25.15;;;17.20;99.90;;;;;;5032244;28;20416;-72
2021/07/14 06:23:56;;;;;;;44.85;27.40;;;17.20;99.90;;;;;;5032239;28;20025;-72
2021/07/14 06:26:22;;;;;;;46.83;26.50;;;17.20;99.90;;;;;;5031522;28;20032;-71
2021/07/14 06:28:47;;;;;;;50.50;25.67;;;17.20;99.90;;;;;;5031586;28;20502;-71
2021/07/14 06:31:13;;;;;;;52.30;25.48;;;17.20;99.90;;;;;;5031832;28;20060;-72
2021/07/14 06:33:40;;;;;;;48.60;24.10;;;17.20;99.90;;;;;;5030687;28;20040;-72
2021/07/14 06:36:06;;;;;;;53.58;27.40;;;17.30;99.90;;;;;;5031531;28;20025;-73
2021/07/14 06:38:34;;;;;;;48.83;26.98;;;17.20;99.90;;;;;;5029767;28;20076;-73
2021/07/14 06:41:00;;;;;;;49.67;27.13;;;17.20;99.90;;;;;;5030906;28;20026;-73
2021/07/14 06:43:59;;;;;;;58.22;28.10;;;17.20;99.90;;;;;;5031995;28;20010;-74
2021/07/14 06:46:22;;;;;;;57.22;28.02;;;17.10;99.90;;;;;;5024228;28;20092;-75
2021/07/14 06:48:47;;;;;;;55.05;27.60;;;17.10;99.90;;;;;;5031859;28;20056;-73
2021/07/14 06:51:13;;;;;;;44.10;26.90;;;17.20;99.90;;;;;;5031266;28;20025;-73
2021/07/14 06:53:39;;;;;;;53.40;26.20;;;17.10;99.90;;;;;;5030692;28;20029;-73
2021/07/14 06:56:05;;;;;;;43.92;24.35;;;17.10;99.90;;;;;;5030586;28;20025;-73
2021/07/14 06:58:31;;;;;;;47.75;25.83;;;17.10;99.90;;;;;;5031903;28;20121;-73
2021/07/14 07:00:57;;;;;;;57.97;29.08;;;17.10;99.90;;;;;;5031157;28;20108;-74
2021/07/14 07:03:23;;;;;;;62.30;30.85;;;17.00;99.90;;;;;;5031908;28;20051;-73
2021/07/14 07:05:49;;;;;;;52.83;28.40;;;17.10;99.90;;;;;;5031404;28;20021;-73
2021/07/14 07:08:15;;;;;;;53.78;28.67;;;17.10;99.90;;;;;;5031719;28;20076;-73
2021/07/14 07:10:41;;;;;;;45.53;27.52;;;17.20;99.90;;;;;;5032002;28;20026;-74
2021/07/14 07:13:07;;;;;;;58.53;31.70;;;17.20;99.90;;;;;;5031406;28;20535;-73
2021/07/14 07:15:33;;;;;;;54.97;31.25;;;17.30;99.90;;;;;;5031790;28;20385;-73
2021/07/14 07:17:58;;;;;;;50.78;31.80;;;17.20;99.90;;;;;;5031519;28;20021;-74
2021/07/14 07:20:24;;;;;;;48.70;31.05;;;17.20;99.90;;;;;;5031752;28;20026;-73
2021/07/14 07:22:50;;;;;;;55.45;31.90;;;17.20;99.90;;;;;;5031195;28;20432;-69
2021/07/14 07:25:16;;;;;;;51.33;30.52;;;17.30;99.90;;;;;;5026454;28;20018;-73
2021/07/14 07:27:42;;;;;;;51.95;25.92;;;17.30;99.90;;;;;;5013317;28;20041;-73
2021/07/14 07:30:09;;;;;;;38.28;23.98;;;17.40;99.90;;;;;;5029278;28;20358;-72
2021/07/14 07:32:35;;;;;;;38.97;23.60;;;17.40;99.90;;;;;;5031747;28;20037;-73
2021/07/14 07:35:01;;;;;;;44.72;25.25;;;17.50;99.90;;;;;;5031290;28;20021;-73
2021/07/14 07:37:26;;;;;;;44.20;27.27;;;17.60;99.90;;;;;;5031276;28;20018;-73
2021/07/14 07:39:52;;;;;;;47.80;28.98;;;17.60;99.90;;;;;;5025470;28;20065;-72
2021/07/14 07:42:19;;;;;;;39.78;26.40;;;17.60;99.90;;;;;;5032009;28;20044;-73
2021/07/14 07:44:44;;;;;;;38.28;23.88;;;17.70;99.90;;;;;;5032318;28;20033;-74
2021/07/14 07:47:10;;;;;;;46.08;24.00;;;17.70;99.90;;;;;;5035624;28;20040;-74
2021/07/14 07:49:38;;;;;;;37.58;21.98;;;17.70;99.90;;;;;;5035092;28;20025;-73
2021/07/14 07:52:04;;;;;;;34.03;21.05;;;17.70;99.90;;;;;;5035089;28;20428;-73
2021/07/14 07:54:30;;;;;;;42.83;24.02;;;17.70;99.90;;;;;;5021729;28;20025;-73
2021/07/14 07:56:55;;;;;;;39.63;23.98;;;17.70;99.90;;;;;;5035831;28;20026;-71
2021/07/14 07:59:22;;;;;;;45.88;24.42;;;17.70;99.90;;;;;;5036464;28;20040;-71
2021/07/14 08:01:47;;;;;;;41.22;24.23;;;17.60;99.90;;;;;;5035992;28;20068;-75
2021/07/14 08:04:13;;;;;;;38.95;24.10;;;17.60;99.90;;;;;;5037143;28;20551;-72
2021/07/14 08:06:39;;;;;;;39.85;25.15;;;17.60;99.90;;;;;;5037453;28;20124;-74
2021/07/14 08:09:06;;;;;;;38.25;23.67;;;17.70;99.90;;;;;;5035330;28;20022;-73
2021/07/14 08:11:32;;;;;;;42.25;26.33;;;17.60;99.90;;;;;;5035221;28;20026;-72
2021/07/14 08:13:59;;;;;;;48.03;27.98;;;17.50;99.90;;;;;;5035109;28;20424;-73
2021/07/14 08:16:26;;;;;;;50.65;29.35;;;17.60;99.90;;;;;;5034880;28;20096;-69
2021/07/14 08:18:52;;;;;;;48.05;28.52;;;17.60;99.90;;;;;;5016466;28;20428;-73
2021/07/14 08:21:18;;;;;;;34.63;24.65;;;17.60;99.90;;;;;;5035164;28;20022;-73
2021/07/14 08:23:47;;;;;;;35.90;23.35;;;17.50;99.90;;;;;;5033870;28;20473;-73
2021/07/14 08:26:13;;;;;;;45.47;26.02;;;17.60;99.90;;;;;;5030701;28;20037;-74
2021/07/14 08:28:40;;;;;;;40.85;26.50;;;17.60;99.90;;;;;;5026567;28;20029;-72
2021/07/14 08:31:06;;;;;;;42.35;24.20;;;17.70;99.90;;;;;;5019608;28;20061;-73
2021/07/14 08:33:31;;;;;;;44.92;27.23;;;17.70;99.90;;;;;;5032449;28;20069;-74
2021/07/14 08:35:57;;;;;;;43.28;25.98;;;17.60;99.90;;;;;;5023624;28;20095;-73
2021/07/14 08:38:23;;;;;;;45.17;26.85;;;17.60;99.90;;;;;;5016800;28;20029;-74
2021/07/14 08:40:51;;;;;;;35.80;23.25;;;17.70;99.90;;;;;;5018721;28;20057;-75
2021/07/14 08:43:23;;;;;;;42.97;24.88;;;17.70;99.90;;;;;;5033081;28;20029;-74
2021/07/14 08:45:51;;;;;;;35.78;22.30;;;17.70;99.90;;;;;;5033340;28;20048;-74
2021/07/14 08:48:17;;;;;;;37.22;24.08;;;17.70;99.90;;;;;;5033362;28;20033;-74
2021/07/14 08:50:44;;;;;;;38.65;24.85;;;17.70;99.90;;;;;;5033344;28;20351;-73
2021/07/14 08:53:15;;;;;;;34.33;22.40;;;17.70;99.90;;;;;;5033178;28;20457;-74
2021/07/14 08:55:42;;;;;;;32.47;21.35;;;17.70;99.90;;;;;;5032874;28;20496;-73
2021/07/14 08:58:19;;;;;;;33.88;23.35;;;17.70;99.90;;;;;;5033892;28;20026;-74
2021/07/14 09:00:47;;;;;;;39.70;24.00;;;17.80;99.90;;;;;;5030610;28;20021;-76
2021/07/14 09:03:13;;;;;;;43.00;26.25;;;17.80;99.90;;;;;;5034259;28;20389;-75
2021/07/14 09:05:38;;;;;;;38.17;23.30;;;17.80;99.90;;;;;;5031474;28;20057;-76
2021/07/14 09:08:05;;;;;;;52.38;24.42;;;17.80;99.90;;;;;;5030829;28;20060;-67
2021/07/14 09:10:31;;;;;;;26.80;19.67;;;17.90;99.90;;;;;;5028582;28;20062;-68
2021/07/14 09:12:58;;;;;;;29.52;18.73;;;18.00;99.90;;;;;;5021880;28;20022;-68
2021/07/14 09:15:27;;;;;;;28.30;17.73;;;18.00;99.90;;;;;;5032979;28;20038;-72
2021/07/14 09:17:58;;;;;;;23.50;17.20;;;18.10;99.90;;;;;;5033439;28;20060;-74
2021/07/14 09:20:31;;;;;;;30.58;17.33;;;18.20;99.90;;;;;;5034594;28;20029;-76
2021/07/14 09:23:06;;;;;;;32.05;18.20;;;18.20;99.90;;;;;;5033530;28;20389;-72
2021/07/14 09:25:42;;;;;;;29.67;19.88;;;18.20;99.90;;;;;;5033429;28;20025;-74
2021/07/14 09:28:09;;;;;;;25.48;16.45;;;18.10;99.90;;;;;;5032952;28;20420;-77
2021/07/14 09:30:38;;;;;;;29.15;18.40;;;18.10;99.90;;;;;;5033841;28;20029;-75
2021/07/14 09:33:07;;;;;;;25.88;17.75;;;18.00;99.90;;;;;;5033233;28;20140;-80
2021/07/14 09:35:41;;;;;;;32.13;21.27;;;18.00;99.90;;;;;;5029542;28;20022;-75
2021/07/14 09:38:12;;;;;;;33.78;22.15;;;18.10;99.90;;;;;;5028381;28;20055;-74
2021/07/14 09:40:40;;;;;;;32.53;19.80;;;18.10;99.90;;;;;;5031519;28;20080;-73
2021/07/14 09:43:20;;;;;;;26.48;18.52;;;18.10;99.90;;;;;;5032514;28;20143;-74
2021/07/14 09:46:05;;;;;;;24.75;18.45;;;18.10;99.90;;;;;;5029932;28;20430;-73
2021/07/14 09:48:42;;;;;;;22.80;17.95;;;18.20;99.90;;;;;;5032158;28;20128;-73
2021/07/14 09:51:19;;;;;;;20.45;15.65;;;18.20;99.90;;;;;;5030737;28;20056;-73
2021/07/14 09:53:50;;;;;;;21.17;15.52;;;18.30;99.90;;;;;;5031898;28;20052;-72
2021/07/14 09:56:17;;;;;;;17.23;13.57;;;18.30;99.90;;;;;;5031651;28;20101;-73
2021/07/14 09:58:43;;;;;;;18.73;13.05;;;18.40;99.90;;;;;;5032810;28;20095;-73
2021/07/14 10:01:16;;;;;;;19.35;13.88;;;18.40;99.90;;;;;;5032499;28;20401;-73
2021/07/14 10:03:50;;;;;;;23.85;15.23;;;18.50;99.90;;;;;;5027813;28;20045;-72
2021/07/14 10:06:17;;;;;;;28.88;16.10;;;18.50;99.90;;;;;;5030641;28;20029;-72
2021/07/14 10:08:48;;;;;;;21.10;15.57;;;18.50;99.90;;;;;;5031177;28;20473;-71
2021/07/14 10:11:25;;;;;;;19.38;16.33;;;18.50;99.90;;;;;;5031587;28;20457;-72
2021/07/14 10:14:05;;;;;;;22.23;15.13;;;18.30;99.90;;;;;;5031690;28;20032;-74
2021/07/14 10:16:38;;;;;;;19.48;15.60;;;18.40;99.90;;;;;;5032523;28;20028;-72
2021/07/14 10:19:12;;;;;;;27.27;18.35;;;18.50;99.90;;;;;;5031878;28;20485;-72
2021/07/14 10:21:42;;;;;;;23.75;16.58;;;18.50;99.90;;;;;;5032541;28;20026;-72
2021/07/14 10:24:11;;;;;;;23.05;16.25;;;18.60;99.90;;;;;;5032368;28;20040;-71
2021/07/14 10:26:39;;;;;;;20.08;14.75;;;18.60;99.90;;;;;;5031697;28;20041;-72
2021/07/14 10:29:06;;;;;;;25.33;17.65;;;18.70;99.90;;;;;;5032730;28;20049;-73
2021/07/14 10:31:33;;;;;;;21.20;18.17;;;18.80;99.90;;;;;;5032239;28;20032;-72
2021/07/14 10:33:59;;;;;;;24.85;17.75;;;18.90;99.90;;;;;;5032251;28;20033;-74
2021/07/14 10:36:30;;;;;;;23.77;16.65;;;19.00;99.90;;;;;;5032384;28;20052;-72
2021/07/14 10:39:04;;;;;;;20.90;12.68;;;19.00;99.90;;;;;;5003373;28;20431;-71
2021/07/14 10:41:31;;;;;;;14.45;12.18;;;19.20;99.90;;;;;;5032457;28;20104;-72
2021/07/14 10:43:58;;;;;;;13.35;11.13;;;19.00;99.90;;;;;;5031644;28;20073;-70
2021/07/14 10:46:25;;;;;;;15.32;11.55;;;19.10;99.90;;;;;;5031921;28;20037;-71
2021/07/14 10:48:53;;;;;;;15.30;12.60;;;19.10;99.90;;;;;;5031885;28;20136;-72
2021/07/14 10:51:19;;;;;;;17.90;14.60;;;19.20;99.90;;;;;;5029608;28;20029;-72
2021/07/14 10:53:49;;;;;;;16.65;14.80;;;19.10;99.90;;;;;;5028363;28;20041;-71
2021/07/14 10:56:16;;;;;;;14.60;11.23;;;19.00;99.90;;;;;;5025147;28;20044;-72
2021/07/14 10:58:44;;;;;;;13.70;11.60;;;19.10;99.90;;;;;;5032320;28;20029;-71
2021/07/14 11:01:10;;;;;;;10.43;9.30;;;19.10;99.90;;;;;;5031738;28;20029;-72
2021/07/14 11:03:43;;;;;;;12.77;10.63;;;19.10;99.90;;;;;;5022036;28;20030;-72
2021/07/14 11:06:11;;;;;;;14.63;10.60;;;19.00;99.90;;;;;;5031854;28;20033;-72
2021/07/14 11:08:48;;;;;;;13.73;10.07;;;19.00;99.90;;;;;;5031369;28;20117;-72
2021/07/14 11:11:16;;;;;;;14.65;10.65;;;19.10;99.90;;;;;;5013989;28;20022;-71
2021/07/14 11:13:46;;;;;;;13.93;10.88;;;19.00;99.90;;;;;;5031134;28;20025;-73
2021/07/14 11:16:35;;;;;;;10.77;9.65;;;19.20;99.90;;;;;;5032216;28;20026;-73
2021/07/14 11:19:11;;;;;;;14.60;10.93;;;19.30;99.90;;;;;;5030674;28;20095;-73
2021/07/14 11:21:48;;;;;;;11.73;9.75;;;19.30;99.90;;;;;;5036545;28;20032;-74
2021/07/14 11:24:39;;;;;;;12.88;9.23;;;19.30;99.90;;;;;;5035887;28;20028;-74
2021/07/14 11:27:27;;;;;;;14.57;9.50;;;19.30;99.90;;;;;;5035380;28;20428;-74
2021/07/14 11:29:54;;;;;;;10.40;9.02;;;19.30;99.90;;;;;;5035430;28;20461;-73
2021/07/14 11:32:42;;;;;;;13.00;9.40;;;19.40;99.90;;;;;;5035250;28;20473;-74
2021/07/14 11:35:40;;;;;;;14.25;10.95;;;19.40;99.90;;;;;;5035210;28;20034;-74
2021/07/14 11:38:16;;;;;;;14.70;10.25;;;19.60;99.90;;;;;;4995150;28;20030;-73
2021/07/14 11:40:45;;;;;;;20.30;10.25;;;19.70;99.90;;;;;;5035910;28;20104;-73
2021/07/14 11:43:11;;;;;;;13.63;10.07;;;19.70;99.90;;;;;;5035685;28;20029;-74
2021/07/14 11:45:42;;;;;;;13.48;10.02;;;19.70;99.90;;;;;;5035735;28;20105;-74
2021/07/14 11:48:10;;;;;;;15.52;10.18;;;19.70;99.90;;;;;;5036641;28;20025;-72
2021/07/14 11:50:45;;;;;;;11.18;9.48;;;19.70;99.90;;;;;;5035519;28;20485;-73
2021/07/14 11:53:30;;;;;;;12.43;9.63;;;19.50;99.90;;;;;;5034542;28;20045;-74
2021/07/14 11:56:21;;;;;;;12.00;8.85;;;19.50;99.90;;;;;;5020955;28;20029;-73
2021/07/14 11:59:12;;;;;;;11.65;8.95;;;19.40;99.90;;;;;;5026825;28;20093;-74
2021/07/14 12:01:37;;;;;;;11.93;9.85;;;19.50;99.90;;;;;;5027391;28;20039;-75
2021/07/14 12:04:04;;;;;;;14.65;10.43;;;19.40;99.90;;;;;;5028605;28;20111;-76
2021/07/14 12:06:34;;;;;;;13.68;9.88;;;19.50;99.90;;;;;;5022216;28;20116;-74
2021/07/14 12:09:17;;;;;;;12.57;10.45;;;19.50;99.90;;;;;;5028104;28;20132;-73
2021/07/14 12:11:44;;;;;;;16.67;11.48;;;19.50;99.90;;;;;;5032564;28;20033;-75
2021/07/14 12:14:10;;;;;;;15.52;11.82;;;19.50;99.90;;;;;;5034992;28;20041;-74
2021/07/14 12:16:36;;;;;;;15.35;11.73;;;19.50;99.90;;;;;;5030033;28;20457;-74
2021/07/14 12:19:02;;;;;;;14.13;11.27;;;19.60;99.90;;;;;;5034091;28;20029;-75
2021/07/14 12:21:43;;;;;;;16.65;12.93;;;19.60;99.90;;;;;;5034768;28;20109;-74
2021/07/14 12:24:33;;;;;;;16.20;11.93;;;19.60;99.90;;;;;;5034374;28;20056;-75
2021/07/14 12:27:23;;;;;;;16.10;11.77;;;19.50;99.90;;;;;;5032849;28;20519;-73
2021/07/14 12:30:15;;;;;;;17.30;12.32;;;19.50;99.90;;;;;;5033804;28;20176;-74
2021/07/14 12:32:57;;;;;;;13.90;11.93;;;19.40;99.90;;;;;;5026233;28;20034;-73
2021/07/14 12:35:22;;;;;;;19.20;12.70;;;19.30;99.90;;;;;;5014680;28;20412;-74
2021/07/14 12:38:08;;;;;;;18.15;12.57;;;19.30;99.90;;;;;;5028354;28;20017;-74
2021/07/14 12:40:39;;;;;;;14.57;12.82;;;19.30;99.90;;;;;;5025120;28;20037;-74
2021/07/14 12:43:12;;;;;;;16.08;11.90;;;19.30;99.90;;;;;;5015892;28;20096;-73
2021/07/14 12:45:43;;;;;;;16.98;12.20;;;19.40;99.90;;;;;;5024329;28;20017;-74
2021/07/14 12:48:20;;;;;;;18.65;12.13;;;19.50;99.90;;;;;;5015397;28;20076;-72